createdAt,value
2018-08-20T00:00:16.848Z,22.07
2018-08-20T00:01:16.871Z,21.99
2018-08-20T00:02:16.902Z,22.00
2018-08-20T00:03:16.937Z,21.96
2018-08-20T00:04:16.966Z,21.97
2018-08-20T00:05:16.998Z,21.93
2018-08-20T00:06:17.025Z,21.96
2018-08-20T00:07:17.060Z,21.97
2018-08-20T00:08:17.090Z,21.97
2018-08-20T00:09:17.119Z,21.94
2018-08-20T00:10:17.154Z,21.93
2018-08-20T00:11:17.181Z,21.96
2018-08-20T00:12:17.215Z,21.99
2018-08-20T00:13:17.243Z,21.94
2018-08-20T00:14:17.276Z,21.99
2018-08-20T00:15:17.305Z,22.02
2018-08-20T00:16:17.341Z,21.97
2018-08-20T00:17:17.370Z,21.92
2018-08-20T00:18:17.400Z,21.93
2018-08-20T00:19:17.430Z,21.94
2018-08-20T00:20:17.466Z,21.96
2018-08-20T00:21:17.494Z,21.90
2018-08-20T00:22:17.527Z,21.89
2018-08-20T00:23:17.556Z,21.86
2018-08-20T00:24:17.587Z,21.89
2018-08-20T00:25:17.619Z,21.85
2018-08-20T00:26:17.647Z,21.93
2018-08-20T00:27:17.678Z,21.86
2018-08-20T00:28:17.712Z,21.89
2018-08-20T00:29:17.743Z,21.82
2018-08-20T00:30:17.771Z,21.83
2018-08-20T00:31:17.804Z,21.83
2018-08-20T00:32:17.833Z,21.83
2018-08-20T00:33:17.864Z,21.89
2018-08-20T00:34:17.895Z,21.83
2018-08-20T00:35:17.926Z,21.74
2018-08-20T00:36:18.003Z,21.82
2018-08-20T00:37:17.990Z,21.76
2018-08-20T00:38:18.019Z,21.76
2018-08-20T00:39:18.053Z,21.76
2018-08-20T00:40:18.085Z,21.77
2018-08-20T00:41:18.115Z,21.80
2018-08-20T00:42:18.146Z,21.80
2018-08-20T00:43:18.174Z,21.80
2018-08-20T00:44:18.207Z,21.77
2018-08-20T00:45:18.247Z,21.76
2018-08-20T00:46:18.266Z,21.70
2018-08-20T00:47:18.300Z,21.66
2018-08-20T00:48:18.330Z,21.66
2018-08-20T00:49:18.362Z,21.66
2018-08-20T00:50:18.390Z,21.76
2018-08-20T00:51:18.421Z,21.67
2018-08-20T00:52:18.453Z,21.64
2018-08-20T00:53:18.490Z,21.62
2018-08-20T00:54:18.517Z,21.64
2018-08-20T00:55:18.545Z,21.66
2018-08-20T00:56:18.578Z,21.67
2018-08-20T00:57:18.606Z,21.67
2018-08-20T00:58:18.640Z,21.66
2018-08-20T00:59:18.668Z,21.67
2018-08-20T01:00:18.703Z,21.58
2018-08-20T01:01:18.731Z,21.59
2018-08-20T01:02:18.763Z,21.62
2018-08-20T01:03:18.791Z,21.58
2018-08-20T01:04:18.827Z,21.49
2018-08-20T01:05:18.853Z,21.49
2018-08-20T01:06:18.887Z,21.51
2018-08-20T01:07:18.915Z,21.43
2018-08-20T01:08:18.945Z,21.41
2018-08-20T01:09:18.976Z,21.55
2018-08-20T01:10:19.008Z,21.48
2018-08-20T01:11:19.038Z,21.52
2018-08-20T01:12:19.072Z,21.53
2018-08-20T01:13:19.099Z,21.46
2018-08-20T01:14:19.133Z,21.45
2018-08-20T01:15:19.160Z,21.55
2018-08-20T01:16:19.194Z,21.51
2018-08-20T01:17:19.225Z,21.56
2018-08-20T01:18:19.254Z,21.49
2018-08-20T01:19:19.284Z,21.49
2018-08-20T01:20:19.316Z,21.52
2018-08-20T01:21:19.348Z,21.45
2018-08-20T01:22:19.380Z,21.43
2018-08-20T01:23:19.407Z,21.45
2018-08-20T01:24:19.439Z,21.40
2018-08-20T01:25:19.471Z,21.37
2018-08-20T01:26:19.500Z,21.30
2018-08-20T01:27:19.533Z,21.28
2018-08-20T01:28:19.564Z,21.25
2018-08-20T01:29:19.592Z,21.37
2018-08-20T01:30:19.626Z,21.31
2018-08-20T01:31:19.654Z,21.30
2018-08-20T01:32:19.689Z,21.31
2018-08-20T01:33:19.715Z,21.31
2018-08-20T01:34:19.746Z,21.31
2018-08-20T01:35:19.778Z,21.33
2018-08-20T01:36:19.813Z,21.38
2018-08-20T01:37:19.841Z,21.48
2018-08-20T01:38:19.872Z,21.43
2018-08-20T01:39:19.901Z,21.38
2018-08-20T01:40:19.935Z,21.36
2018-08-20T01:41:19.962Z,21.33
2018-08-20T01:42:19.999Z,21.28
2018-08-20T01:43:20.025Z,21.28
2018-08-20T01:44:20.055Z,21.25
2018-08-20T01:45:20.088Z,21.25
2018-08-20T01:46:20.116Z,21.28
2018-08-20T01:47:20.145Z,21.28
2018-08-20T01:48:20.184Z,21.25
2018-08-20T01:49:20.207Z,21.16
2018-08-20T01:50:20.241Z,21.19
2018-08-20T01:51:20.272Z,21.18
2018-08-20T01:52:20.303Z,21.28
2018-08-20T01:53:20.333Z,21.19
2018-08-20T01:54:20.365Z,21.13
2018-08-20T01:55:20.401Z,21.16
2018-08-20T01:56:20.424Z,21.21
2018-08-20T01:57:20.454Z,21.28
2018-08-20T01:58:20.488Z,21.19
2018-08-20T01:59:20.518Z,21.16
2018-08-20T02:00:20.547Z,21.19
2018-08-20T02:01:20.579Z,21.18
2018-08-20T02:02:20.608Z,21.16
2018-08-20T02:03:20.641Z,21.16
2018-08-20T02:04:20.672Z,21.16
2018-08-20T02:05:20.701Z,21.16
2018-08-20T02:06:20.736Z,21.08
2018-08-20T02:07:20.763Z,21.11
2018-08-20T02:08:20.795Z,21.15
2018-08-20T02:09:20.826Z,21.01
2018-08-20T02:10:20.853Z,21.18
2018-08-20T02:11:20.888Z,21.18
2018-08-20T02:12:20.915Z,21.06
2018-08-20T02:13:20.949Z,21.11
2018-08-20T02:14:20.976Z,21.09
2018-08-20T02:15:21.011Z,21.11
2018-08-20T02:16:21.041Z,21.09
2018-08-20T02:17:21.069Z,21.00
2018-08-20T02:18:21.098Z,21.03
2018-08-20T02:19:21.136Z,21.08
2018-08-20T02:20:21.163Z,21.04
2018-08-20T02:21:21.191Z,21.09
2018-08-20T02:22:21.224Z,21.12
2018-08-20T02:23:21.252Z,21.06
2018-08-20T02:24:21.285Z,21.06
2018-08-20T02:25:21.317Z,21.08
2018-08-20T02:26:21.345Z,21.09
2018-08-20T02:27:21.379Z,20.94
2018-08-20T02:28:21.407Z,20.94
2018-08-20T02:29:21.439Z,20.96
2018-08-20T02:30:21.470Z,20.93
2018-08-20T02:31:21.499Z,20.97
2018-08-20T02:32:21.534Z,20.97
2018-08-20T02:33:21.562Z,20.94
2018-08-20T02:34:21.590Z,20.97
2018-08-20T02:35:21.623Z,20.96
2018-08-20T02:36:21.657Z,21.06
2018-08-20T02:37:21.683Z,21.06
2018-08-20T02:38:21.713Z,20.91
2018-08-20T02:39:21.744Z,20.94
2018-08-20T02:40:21.778Z,20.91
2018-08-20T02:41:21.806Z,20.90
2018-08-20T02:42:21.841Z,20.91
2018-08-20T02:43:21.866Z,20.86
2018-08-20T02:44:21.897Z,20.86
2018-08-20T02:45:21.929Z,20.81
2018-08-20T02:46:21.958Z,20.93
2018-08-20T02:47:21.990Z,20.86
2018-08-20T02:48:22.021Z,20.93
2018-08-20T02:49:22.050Z,20.91
2018-08-20T02:50:22.082Z,20.91
2018-08-20T02:51:22.110Z,20.88
2018-08-20T02:52:22.145Z,20.82
2018-08-20T02:53:22.172Z,20.81
2018-08-20T02:54:22.205Z,20.86
2018-08-20T02:55:22.237Z,20.85
2018-08-20T02:56:22.268Z,20.82
2018-08-20T02:57:22.296Z,20.86
2018-08-20T02:58:22.325Z,20.85
2018-08-20T02:59:22.356Z,20.83
2018-08-20T03:00:22.392Z,20.94
2018-08-20T03:01:22.417Z,20.90
2018-08-20T03:02:22.451Z,20.86
2018-08-20T03:03:22.480Z,20.79
2018-08-20T03:04:22.509Z,20.78
2018-08-20T03:05:22.541Z,20.86
2018-08-20T03:06:22.572Z,20.85
2018-08-20T03:07:22.601Z,20.88
2018-08-20T03:08:22.633Z,20.83
2018-08-20T03:09:22.661Z,20.82
2018-08-20T03:10:22.695Z,20.79
2018-08-20T03:11:22.724Z,20.78
2018-08-20T03:12:22.756Z,20.85
2018-08-20T03:13:22.787Z,20.78
2018-08-20T03:14:22.814Z,20.81
2018-08-20T03:15:22.845Z,20.81
2018-08-20T03:16:22.925Z,20.79
2018-08-20T03:17:22.959Z,20.76
2018-08-20T03:18:22.940Z,20.71
2018-08-20T03:19:22.971Z,20.74
2018-08-20T03:20:23.005Z,20.71
2018-08-20T03:21:23.029Z,20.83
2018-08-20T03:22:23.060Z,20.78
2018-08-20T03:23:23.091Z,20.75
2018-08-20T03:24:23.121Z,20.82
2018-08-20T03:25:23.155Z,20.75
2018-08-20T03:26:23.185Z,20.67
2018-08-20T03:27:23.212Z,20.64
2018-08-20T03:28:23.246Z,20.67
2018-08-20T03:29:23.274Z,20.71
2018-08-20T03:30:23.306Z,20.72
2018-08-20T03:31:23.338Z,20.64
2018-08-20T03:32:23.368Z,20.71
2018-08-20T03:33:23.396Z,20.68
2018-08-20T03:34:23.449Z,20.61
2018-08-20T03:35:23.458Z,20.61
2018-08-20T03:36:23.490Z,20.75
2018-08-20T03:37:23.518Z,20.67
2018-08-20T03:38:23.548Z,20.61
2018-08-20T03:39:23.578Z,20.58
2018-08-20T03:40:23.610Z,20.75
2018-08-20T03:41:23.640Z,20.63
2018-08-20T03:42:23.672Z,20.66
2018-08-20T03:43:23.701Z,20.67
2018-08-20T03:44:23.731Z,20.75
2018-08-20T03:45:23.762Z,20.66
2018-08-20T03:46:23.794Z,20.68
2018-08-20T03:47:23.822Z,20.66
2018-08-20T03:48:23.857Z,20.67
2018-08-20T03:49:23.883Z,20.72
2018-08-20T03:50:23.917Z,20.68
2018-08-20T03:51:23.949Z,20.63
2018-08-20T03:52:23.975Z,20.71
2018-08-20T03:53:24.007Z,20.68
2018-08-20T03:54:24.044Z,20.71
2018-08-20T03:55:24.068Z,20.67
2018-08-20T03:56:24.100Z,20.61
2018-08-20T03:57:24.127Z,20.57
2018-08-20T03:58:24.156Z,20.53
2018-08-20T03:59:24.187Z,20.61
2018-08-20T04:00:24.217Z,20.68
2018-08-20T04:01:24.250Z,20.56
2018-08-20T04:02:24.281Z,20.74
2018-08-20T04:03:24.313Z,20.71
2018-08-20T04:04:24.340Z,20.72
2018-08-20T04:05:24.388Z,20.68
2018-08-20T04:06:24.401Z,20.67
2018-08-20T04:07:24.431Z,20.64
2018-08-20T04:08:24.462Z,20.68
2018-08-20T04:09:24.492Z,20.66
2018-08-20T04:10:24.526Z,20.58
2018-08-20T04:11:24.555Z,20.66
2018-08-20T04:12:24.584Z,20.63
2018-08-20T04:13:24.617Z,20.56
2018-08-20T04:14:24.645Z,20.58
2018-08-20T04:15:24.674Z,20.61
2018-08-20T04:16:24.705Z,20.64
2018-08-20T04:17:24.739Z,20.58
2018-08-20T04:18:24.769Z,20.57
2018-08-20T04:19:24.799Z,20.56
2018-08-20T04:20:24.827Z,20.56
2018-08-20T04:21:24.857Z,20.56
2018-08-20T04:22:24.893Z,20.63
2018-08-20T04:23:24.923Z,20.60
2018-08-20T04:24:24.951Z,20.56
2018-08-20T04:25:24.981Z,20.56
2018-08-20T04:26:25.013Z,20.57
2018-08-20T04:27:25.041Z,20.63
2018-08-20T04:28:25.070Z,20.60
2018-08-20T04:29:25.107Z,20.53
2018-08-20T04:30:25.158Z,20.58
2018-08-20T04:31:25.164Z,20.56
2018-08-20T04:32:25.203Z,20.56
2018-08-20T04:33:25.222Z,20.64
2018-08-20T04:34:25.254Z,20.60
2018-08-20T04:35:25.288Z,20.58
2018-08-20T04:36:25.371Z,20.46
2018-08-20T04:37:25.347Z,20.56
2018-08-20T04:38:25.377Z,20.57
2018-08-20T04:39:25.461Z,20.56
2018-08-20T04:40:25.436Z,20.58
2018-08-20T04:41:25.469Z,20.60
2018-08-20T04:42:25.498Z,20.57
2018-08-20T04:43:25.528Z,20.58
2018-08-20T04:44:25.565Z,20.53
2018-08-20T04:45:25.588Z,20.46
2018-08-20T04:46:25.626Z,20.44
2018-08-20T04:47:25.651Z,20.40
2018-08-20T04:48:25.678Z,20.48
2018-08-20T04:49:25.707Z,20.54
2018-08-20T04:50:25.809Z,20.49
2018-08-20T04:51:25.840Z,20.48
2018-08-20T04:52:25.802Z,20.48
2018-08-20T04:53:25.834Z,20.42
2018-08-20T04:54:25.867Z,20.49
2018-08-20T04:55:25.897Z,20.41
2018-08-20T04:56:25.922Z,20.41
2018-08-20T04:57:25.954Z,20.42
2018-08-20T04:58:25.985Z,20.41
2018-08-20T04:59:26.015Z,20.49
2018-08-20T05:00:26.045Z,20.44
2018-08-20T05:01:26.077Z,20.58
2018-08-20T05:02:26.107Z,20.48
2018-08-20T05:03:26.135Z,20.56
2018-08-20T05:04:26.170Z,20.64
2018-08-20T05:05:26.195Z,20.54
2018-08-20T05:06:26.226Z,20.63
2018-08-20T05:07:26.256Z,20.58
2018-08-20T05:08:26.287Z,20.63
2018-08-20T05:09:26.325Z,20.58
2018-08-20T05:10:26.346Z,20.60
2018-08-20T05:11:26.378Z,20.58
2018-08-20T05:12:26.410Z,20.53
2018-08-20T05:13:26.442Z,20.63
2018-08-20T05:14:26.470Z,20.56
2018-08-20T05:15:26.501Z,20.53
2018-08-20T05:16:26.530Z,20.54
2018-08-20T05:17:26.561Z,20.51
2018-08-20T05:18:26.591Z,20.61
2018-08-20T05:19:26.620Z,20.74
2018-08-20T05:20:26.650Z,20.60
2018-08-20T05:21:26.681Z,20.57
2018-08-20T05:22:26.712Z,20.46
2018-08-20T05:23:26.743Z,20.44
2018-08-20T05:24:26.774Z,20.46
2018-08-20T05:25:26.806Z,20.46
2018-08-20T05:26:26.834Z,20.42
2018-08-20T05:27:26.868Z,20.51
2018-08-20T05:28:26.896Z,20.46
2018-08-20T05:29:27.064Z,20.46
2018-08-20T05:30:27.040Z,20.42
2018-08-20T05:31:26.993Z,20.46
2018-08-20T05:32:27.014Z,20.44
2018-08-20T05:33:27.046Z,20.44
2018-08-20T05:34:27.074Z,20.44
2018-08-20T05:35:27.112Z,20.42
2018-08-20T05:36:27.137Z,20.42
2018-08-20T05:37:27.170Z,20.49
2018-08-20T05:38:27.198Z,20.44
2018-08-20T05:39:27.230Z,20.44
2018-08-20T05:40:27.258Z,20.46
2018-08-20T05:41:27.289Z,20.56
2018-08-20T05:42:27.319Z,20.54
2018-08-20T05:43:27.354Z,20.60
2018-08-20T05:44:27.380Z,20.54
2018-08-20T05:45:27.409Z,20.58
2018-08-20T05:46:27.440Z,20.68
2018-08-20T05:47:27.471Z,20.67
2018-08-20T05:48:27.499Z,20.67
2018-08-20T05:49:27.530Z,20.67
2018-08-20T05:50:27.560Z,20.72
2018-08-20T05:51:27.591Z,20.61
2018-08-20T05:52:27.635Z,20.72
2018-08-20T05:53:27.656Z,20.68
2018-08-20T05:54:27.683Z,20.71
2018-08-20T05:55:27.714Z,20.63
2018-08-20T05:56:27.742Z,20.60
2018-08-20T05:57:27.772Z,20.54
2018-08-20T05:58:27.802Z,20.57
2018-08-20T05:59:27.836Z,20.67
2018-08-20T06:00:27.867Z,20.58
2018-08-20T06:01:27.896Z,20.67
2018-08-20T06:02:27.928Z,20.63
2018-08-20T06:03:27.957Z,20.74
2018-08-20T06:04:27.990Z,20.82
2018-08-20T06:05:28.015Z,20.75
2018-08-20T06:06:28.045Z,20.79
2018-08-20T06:07:28.080Z,20.88
2018-08-20T06:08:28.112Z,20.82
2018-08-20T06:09:28.140Z,20.91
2018-08-20T06:10:28.168Z,20.88
2018-08-20T06:11:28.197Z,20.96
2018-08-20T06:12:28.230Z,20.96
2018-08-20T06:13:28.262Z,21.00
2018-08-20T06:14:28.291Z,20.81
2018-08-20T06:15:28.327Z,20.81
2018-08-20T06:16:28.350Z,20.79
2018-08-20T06:17:28.383Z,20.85
2018-08-20T06:18:28.413Z,20.78
2018-08-20T06:19:28.444Z,20.88
2018-08-20T06:20:28.476Z,20.91
2018-08-20T06:21:28.505Z,21.03
2018-08-20T06:22:28.575Z,21.04
2018-08-20T06:23:28.564Z,21.12
2018-08-20T06:24:28.597Z,21.11
2018-08-20T06:25:28.625Z,21.13
2018-08-20T06:26:28.660Z,21.19
2018-08-20T06:27:28.688Z,21.15
2018-08-20T06:28:28.768Z,21.13
2018-08-20T06:29:28.751Z,20.96
2018-08-20T06:30:28.775Z,20.97
2018-08-20T06:31:28.808Z,20.97
2018-08-20T06:32:28.841Z,20.96
2018-08-20T06:33:28.867Z,20.96
2018-08-20T06:34:28.900Z,21.03
2018-08-20T06:35:28.932Z,21.06
2018-08-20T06:36:28.961Z,21.18
2018-08-20T06:37:28.993Z,21.19
2018-08-20T06:38:29.024Z,21.13
2018-08-20T06:39:29.053Z,21.12
2018-08-20T06:40:29.086Z,21.04
2018-08-20T06:41:29.154Z,21.09
2018-08-20T06:42:29.143Z,21.03
2018-08-20T06:43:29.175Z,21.09
2018-08-20T06:44:29.208Z,21.11
2018-08-20T06:45:29.235Z,21.18
2018-08-20T06:46:29.266Z,21.18
2018-08-20T06:47:29.296Z,21.25
2018-08-20T06:48:29.329Z,21.27
2018-08-20T06:49:29.357Z,21.30
2018-08-20T06:50:29.388Z,21.28
2018-08-20T06:51:29.422Z,21.19
2018-08-20T06:52:29.453Z,21.16
2018-08-20T06:53:29.483Z,21.09
2018-08-20T06:54:29.564Z,21.12
2018-08-20T06:55:29.545Z,21.08
2018-08-20T06:56:29.576Z,21.13
2018-08-20T06:57:29.604Z,21.18
2018-08-20T06:58:29.633Z,21.15
2018-08-20T06:59:29.664Z,21.13
2018-08-20T07:00:29.697Z,21.25
2018-08-20T07:01:29.726Z,21.28
2018-08-20T07:02:29.758Z,21.37
2018-08-20T07:03:29.789Z,21.25
2018-08-20T07:04:29.820Z,21.13
2018-08-20T07:05:29.851Z,21.03
2018-08-20T07:06:29.965Z,21.06
2018-08-20T07:07:29.910Z,21.12
2018-08-20T07:08:29.947Z,21.11
2018-08-20T07:09:29.971Z,21.16
2018-08-20T07:10:30.005Z,21.22
2018-08-20T07:11:30.037Z,21.31
2018-08-20T07:12:30.064Z,21.19
2018-08-20T07:13:30.097Z,21.15
2018-08-20T07:14:30.125Z,21.19
2018-08-20T07:15:30.158Z,21.23
2018-08-20T07:16:30.187Z,21.31
2018-08-20T07:17:30.258Z,21.34
2018-08-20T07:18:30.247Z,21.27
2018-08-20T07:19:30.281Z,21.30
2018-08-20T07:20:30.313Z,21.28
2018-08-20T07:21:30.340Z,21.34
2018-08-20T07:22:30.372Z,21.30
2018-08-20T07:23:30.497Z,21.27
2018-08-20T07:24:30.436Z,21.28
2018-08-20T07:25:30.465Z,21.30
2018-08-20T07:26:30.497Z,21.27
2018-08-20T07:27:30.526Z,21.30
2018-08-20T07:28:30.558Z,21.31
2018-08-20T07:29:30.586Z,21.25
2018-08-20T07:30:30.619Z,21.30
2018-08-20T07:31:30.648Z,21.45
2018-08-20T07:32:30.680Z,21.49
2018-08-20T07:33:30.713Z,21.67
2018-08-20T07:34:30.742Z,21.73
2018-08-20T07:35:30.771Z,21.80
2018-08-20T07:36:30.804Z,21.90
2018-08-20T07:37:30.832Z,21.83
2018-08-20T07:38:30.865Z,21.85
2018-08-20T07:39:30.894Z,21.76
2018-08-20T07:40:30.927Z,21.67
2018-08-20T07:41:30.957Z,21.64
2018-08-20T07:42:31.044Z,21.61
2018-08-20T07:43:31.017Z,21.61
2018-08-20T07:44:31.053Z,21.67
2018-08-20T07:45:31.081Z,21.74
2018-08-20T07:46:31.112Z,21.85
2018-08-20T07:47:31.143Z,21.94
2018-08-20T07:48:31.179Z,21.90
2018-08-20T07:49:31.207Z,22.07
2018-08-20T07:50:31.235Z,22.08
2018-08-20T07:51:31.271Z,22.00
2018-08-20T07:52:31.300Z,21.76
2018-08-20T07:53:31.326Z,21.68
2018-08-20T07:54:31.359Z,21.66
2018-08-20T07:55:31.446Z,21.55
2018-08-20T07:56:31.422Z,21.51
2018-08-20T07:57:31.452Z,21.52
2018-08-20T07:58:31.487Z,21.56
2018-08-20T07:59:31.516Z,21.59
2018-08-20T08:00:31.546Z,21.77
2018-08-20T08:01:31.579Z,21.71
2018-08-20T08:02:31.611Z,21.85
2018-08-20T08:03:31.644Z,21.74
2018-08-20T08:04:31.676Z,21.64
2018-08-20T08:05:31.703Z,21.70
2018-08-20T08:06:31.733Z,21.74
2018-08-20T08:07:31.764Z,21.93
2018-08-20T08:08:31.799Z,21.85
2018-08-20T08:09:31.830Z,21.85
2018-08-20T08:10:31.856Z,21.89
2018-08-20T08:11:31.890Z,21.85
2018-08-20T08:12:31.921Z,21.94
2018-08-20T08:13:31.951Z,22.07
2018-08-20T08:14:31.982Z,21.94
2018-08-20T08:15:32.009Z,21.93
2018-08-20T08:16:32.045Z,22.12
2018-08-20T08:17:32.073Z,22.04
2018-08-20T08:18:32.181Z,21.96
2018-08-20T08:19:32.135Z,21.90
2018-08-20T08:20:32.170Z,21.83
2018-08-20T08:21:32.196Z,21.86
2018-08-20T08:22:32.231Z,21.78
2018-08-20T08:23:32.259Z,21.80
2018-08-20T08:24:32.298Z,21.80
2018-08-20T08:25:32.323Z,21.97
2018-08-20T08:26:32.361Z,22.07
2018-08-20T08:27:32.387Z,22.04
2018-08-20T08:28:32.417Z,22.14
2018-08-20T08:29:32.446Z,22.12
2018-08-20T08:30:32.481Z,22.15
2018-08-20T08:31:32.508Z,22.26
2018-08-20T08:32:32.541Z,22.36
2018-08-20T08:33:32.574Z,22.31
2018-08-20T08:34:32.605Z,22.41
2018-08-20T08:35:32.638Z,22.34
2018-08-20T08:36:32.666Z,22.36
2018-08-20T08:37:32.696Z,22.29
2018-08-20T08:38:32.726Z,22.31
2018-08-20T08:39:32.758Z,22.42
2018-08-20T08:40:32.792Z,22.55
2018-08-20T08:41:32.822Z,22.60
2018-08-20T08:42:32.852Z,22.61
2018-08-20T08:43:32.914Z,22.42
2018-08-20T08:44:32.917Z,22.48
2018-08-20T08:45:32.947Z,22.44
2018-08-20T08:46:32.979Z,22.51
2018-08-20T08:47:33.010Z,22.55
2018-08-20T08:48:33.046Z,22.61
2018-08-20T08:49:33.071Z,22.59
2018-08-20T08:50:33.102Z,22.61
2018-08-20T08:51:33.136Z,22.63
2018-08-20T08:52:33.166Z,22.60
2018-08-20T08:53:33.195Z,22.60
2018-08-20T08:54:33.233Z,22.55
2018-08-20T08:55:33.264Z,22.63
2018-08-20T08:56:33.292Z,22.71
2018-08-20T08:57:33.321Z,22.75
2018-08-20T08:58:33.357Z,22.78
2018-08-20T08:59:33.386Z,22.79
2018-08-20T09:00:33.471Z,22.91
2018-08-20T09:01:33.452Z,22.97
2018-08-20T09:02:33.481Z,23.14
2018-08-20T09:03:33.515Z,23.00
2018-08-20T09:04:33.544Z,23.15
2018-08-20T09:05:33.576Z,23.35
2018-08-20T09:06:33.613Z,23.53
2018-08-20T09:07:33.640Z,23.85
2018-08-20T09:08:33.673Z,24.03
2018-08-20T09:09:33.704Z,23.99
2018-08-20T09:10:33.735Z,24.11
2018-08-20T09:11:33.768Z,24.24
2018-08-20T09:12:33.801Z,24.27
2018-08-20T09:13:33.883Z,24.04
2018-08-20T09:14:33.870Z,23.66
2018-08-20T09:15:33.896Z,23.63
2018-08-20T09:16:33.927Z,23.63
2018-08-20T09:17:33.960Z,23.67
2018-08-20T09:18:33.993Z,23.70
2018-08-20T09:19:34.026Z,23.78
2018-08-20T09:20:34.072Z,23.64
2018-08-20T09:21:34.095Z,23.60
2018-08-20T09:22:34.123Z,23.60
2018-08-20T09:23:34.159Z,23.66
2018-08-20T09:24:34.186Z,23.70
2018-08-20T09:25:34.219Z,23.56
2018-08-20T09:26:34.253Z,23.79
2018-08-20T09:27:34.283Z,23.62
2018-08-20T09:28:34.319Z,23.59
2018-08-20T09:29:34.350Z,23.62
2018-08-20T09:30:34.382Z,23.60
2018-08-20T09:31:34.415Z,23.64
2018-08-20T09:32:34.445Z,23.87
2018-08-20T09:33:34.478Z,23.99
2018-08-20T09:34:34.510Z,24.24
2018-08-20T09:35:34.542Z,24.24
2018-08-20T09:36:34.575Z,24.44
2018-08-20T09:37:34.607Z,24.21
2018-08-20T09:38:34.639Z,23.97
2018-08-20T09:39:34.674Z,24.04
2018-08-20T09:40:34.707Z,23.90
2018-08-20T09:41:34.737Z,23.84
2018-08-20T09:42:34.773Z,23.79
2018-08-20T09:43:34.806Z,23.87
2018-08-20T09:44:34.838Z,23.74
2018-08-20T09:45:34.872Z,23.78
2018-08-20T09:46:34.905Z,23.85
2018-08-20T09:47:34.935Z,23.97
2018-08-20T09:48:34.969Z,24.37
2018-08-20T09:49:35.001Z,24.67
2018-08-20T09:50:35.034Z,24.92
2018-08-20T09:51:35.069Z,25.02
2018-08-20T09:52:35.100Z,25.20
2018-08-20T09:53:35.135Z,25.24
2018-08-20T09:54:35.164Z,25.09
2018-08-20T09:55:35.203Z,25.02
2018-08-20T09:56:35.232Z,24.86
2018-08-20T09:57:35.264Z,24.74
2018-08-20T09:58:35.299Z,24.66
2018-08-20T09:59:35.331Z,24.61
2018-08-20T10:00:35.368Z,24.34
2018-08-20T10:01:35.396Z,24.08
2018-08-20T10:02:35.430Z,23.92
2018-08-20T10:03:35.462Z,23.82
2018-08-20T10:04:35.495Z,23.55
2018-08-20T10:05:35.528Z,23.42
2018-08-20T10:06:35.563Z,23.44
2018-08-20T10:07:35.594Z,23.45
2018-08-20T10:08:35.649Z,23.59
2018-08-20T10:09:35.666Z,23.56
2018-08-20T10:10:35.693Z,23.66
2018-08-20T10:11:35.838Z,23.59
2018-08-20T10:12:35.790Z,23.40
2018-08-20T10:13:35.800Z,23.42
2018-08-20T10:14:35.824Z,23.29
2018-08-20T10:15:35.860Z,23.28
2018-08-20T10:16:35.892Z,23.29
2018-08-20T10:17:35.926Z,23.18
2018-08-20T10:18:36.091Z,23.22
2018-08-20T10:19:35.988Z,23.12
2018-08-20T10:20:36.023Z,23.19
2018-08-20T10:21:36.052Z,23.26
2018-08-20T10:22:36.085Z,23.25
2018-08-20T10:23:36.120Z,23.18
2018-08-20T10:24:36.170Z,23.15
2018-08-20T10:25:36.181Z,23.18
2018-08-20T10:26:36.217Z,23.19
2018-08-20T10:27:36.247Z,23.25
2018-08-20T10:28:36.283Z,23.25
2018-08-20T10:29:36.313Z,23.28
2018-08-20T10:30:36.342Z,23.18
2018-08-20T10:31:36.377Z,23.21
2018-08-20T10:32:36.449Z,23.12
2018-08-20T10:33:36.438Z,22.97
2018-08-20T10:34:36.474Z,23.04
2018-08-20T10:35:36.506Z,22.91
2018-08-20T10:36:36.538Z,22.91
2018-08-20T10:37:36.608Z,22.91
2018-08-20T10:38:36.602Z,22.91
2018-08-20T10:39:36.634Z,22.88
2018-08-20T10:40:36.664Z,22.92
2018-08-20T10:41:36.695Z,22.86
2018-08-20T10:42:36.728Z,22.70
2018-08-20T10:43:36.797Z,22.67
2018-08-20T10:44:36.796Z,22.59
2018-08-20T10:45:36.823Z,22.33
2018-08-20T10:46:36.855Z,22.09
2018-08-20T10:47:36.889Z,21.99
2018-08-20T10:48:36.920Z,21.94
2018-08-20T10:49:37.031Z,21.96
2018-08-20T10:50:36.987Z,21.92
2018-08-20T10:51:37.018Z,21.99
2018-08-20T10:52:37.050Z,21.97
2018-08-20T10:53:37.079Z,21.93
2018-08-20T10:54:37.113Z,21.96
2018-08-20T10:55:37.141Z,21.97
2018-08-20T10:56:37.174Z,22.02
2018-08-20T10:57:37.207Z,22.08
2018-08-20T10:58:37.236Z,22.08
2018-08-20T10:59:37.271Z,22.02
2018-08-20T11:00:37.300Z,22.02
2018-08-20T11:01:37.334Z,22.02
2018-08-20T11:02:37.362Z,22.07
2018-08-20T11:03:37.397Z,21.85
2018-08-20T11:04:37.425Z,22.04
2018-08-20T11:05:37.465Z,21.86
2018-08-20T11:06:37.495Z,21.97
2018-08-20T11:07:37.521Z,21.92
2018-08-20T11:08:37.555Z,21.99
2018-08-20T11:09:37.586Z,21.96
2018-08-20T11:10:37.616Z,22.02
2018-08-20T11:11:37.652Z,22.09
2018-08-20T11:12:37.682Z,22.07
2018-08-20T11:13:37.709Z,22.09
2018-08-20T11:14:37.745Z,22.18
2018-08-20T11:15:37.774Z,22.18
2018-08-20T11:16:37.806Z,22.18
2018-08-20T11:17:37.838Z,22.29
2018-08-20T11:18:37.884Z,22.26
2018-08-20T11:19:37.901Z,22.31
2018-08-20T11:20:37.930Z,22.46
2018-08-20T11:21:37.963Z,22.63
2018-08-20T11:22:37.994Z,22.52
2018-08-20T11:23:38.028Z,22.60
2018-08-20T11:24:38.055Z,22.54
2018-08-20T11:25:38.092Z,22.55
2018-08-20T11:26:38.118Z,22.49
2018-08-20T11:27:38.254Z,22.34
2018-08-20T11:28:38.185Z,22.49
2018-08-20T11:29:38.213Z,22.44
2018-08-20T11:30:38.245Z,22.51
2018-08-20T11:31:38.278Z,22.48
2018-08-20T11:32:38.310Z,22.61
2018-08-20T11:33:38.343Z,22.55
2018-08-20T11:34:38.370Z,22.60
2018-08-20T11:35:38.407Z,22.60
2018-08-20T11:36:38.503Z,22.70
2018-08-20T11:37:38.467Z,22.86
2018-08-20T11:38:38.496Z,23.04
2018-08-20T11:39:38.530Z,23.01
2018-08-20T11:40:38.560Z,23.12
2018-08-20T11:41:38.591Z,23.16
2018-08-20T11:42:38.631Z,23.26
2018-08-20T11:43:38.655Z,23.34
2018-08-20T11:44:38.690Z,23.44
2018-08-20T11:45:39.528Z,23.22
2018-08-20T11:46:38.751Z,23.26
2018-08-20T11:47:38.782Z,23.16
2018-08-20T11:48:38.816Z,23.12
2018-08-20T11:49:38.848Z,23.07
2018-08-20T11:50:38.879Z,23.00
2018-08-20T11:51:38.914Z,22.94
2018-08-20T11:52:38.943Z,22.92
2018-08-20T11:53:38.973Z,22.84
2018-08-20T11:54:39.008Z,22.85
2018-08-20T11:55:39.038Z,22.79
2018-08-20T11:56:39.070Z,22.89
2018-08-20T11:57:39.102Z,22.91
2018-08-20T11:58:39.134Z,23.06
2018-08-20T11:59:39.167Z,23.09
2018-08-20T12:00:39.196Z,23.15
2018-08-20T12:01:39.227Z,23.21
2018-08-20T12:02:39.264Z,23.22
2018-08-20T12:03:39.294Z,23.29
2018-08-20T12:04:39.325Z,23.63
2018-08-20T12:05:39.357Z,23.63
2018-08-20T12:06:39.390Z,23.63
2018-08-20T12:07:39.479Z,23.85
2018-08-20T12:08:39.451Z,24.19
2018-08-20T12:09:39.484Z,24.02
2018-08-20T12:10:39.520Z,24.07
2018-08-20T12:11:39.550Z,24.09
2018-08-20T12:12:39.582Z,24.21
2018-08-20T12:13:39.613Z,24.33
2018-08-20T12:14:39.649Z,24.44
2018-08-20T12:15:39.679Z,24.39
2018-08-20T12:17:39.744Z,24.58
2018-08-20T12:18:39.774Z,24.74
2018-08-20T12:19:39.809Z,25.23
2018-08-20T12:20:39.844Z,25.30
2018-08-20T12:21:39.872Z,25.20
2018-08-20T12:22:39.907Z,25.09
2018-08-20T12:23:39.939Z,25.00
2018-08-20T12:24:39.969Z,25.08
2018-08-20T12:25:40.008Z,25.38
2018-08-20T12:26:40.044Z,25.37
2018-08-20T12:27:40.069Z,25.89
2018-08-20T12:28:40.103Z,26.24
2018-08-20T12:29:40.138Z,26.69
2018-08-20T12:30:40.172Z,26.71
2018-08-20T12:31:40.203Z,27.13
2018-08-20T12:32:40.234Z,28.01
2018-08-20T12:33:40.270Z,28.21
2018-08-20T12:34:40.303Z,28.63
2018-08-20T12:35:40.341Z,28.48
2018-08-20T12:36:40.375Z,28.38
2018-08-20T12:37:40.403Z,28.41
2018-08-20T12:38:40.440Z,28.38
2018-08-20T12:39:40.527Z,28.03
2018-08-20T12:40:40.509Z,28.64
2018-08-20T12:41:40.548Z,28.42
2018-08-20T12:42:40.580Z,28.57
2018-08-20T12:43:40.616Z,28.45
2018-08-20T12:44:40.651Z,28.14
2018-08-20T12:45:40.688Z,27.91
2018-08-20T12:46:40.725Z,27.84
2018-08-20T12:47:40.759Z,27.91
2018-08-20T12:48:40.795Z,27.96
2018-08-20T12:49:40.827Z,28.55
2018-08-20T12:50:40.863Z,28.85
2018-08-20T12:51:40.904Z,29.02
2018-08-20T12:52:40.938Z,29.45
2018-08-20T12:53:40.974Z,29.33